Tramore, Ireland
Current Conditions -  °F | °C
As of 2:00 PM on Thursday 30 Oct 2014 (Local Time) from EIWF Reporting Station
Overcast Overcast  
Wind Chill: 59°   Ceiling: 200
Heat Index: 59°   Visibility: 4mi
Dew Point: 59°   Wind: 17mph
Humidity: 100%   Direction: 210°SSW
Pressure: 29.85"   Gusts: NA
Location:  52.16°N, 7.16°W
Report Text: EIWF 301400Z 21015KT 180V240 6000 OVC002 15/15 Q1011 R21/2/////
Loading
Personal Weather Stations






























Interactive Weather Map
Tropical Storm Tracking
New forecast layout! Learn more

10-Day Weather Forecast

Advertisements
Track Severe Weather on mobile